Time;durP1;ratioP1;P1;durP2;ratioP2;P2;SDS_P1;SDS_P2;PMS_P1;PMS_P2;Temp;Humidity;BMP_temperature;BMP_pressure;BME280_temperature;BME280_humidity;BME280_pressure;Samples;Min_cycle;Max_cycle;Signal;HPM_P1;HPM_P2
2022/03/28 00:01:27;;;;;;;29.07;14.60;;;;;;;;;;5001550;28;20124;-74
2022/03/28 00:03:54;;;;;;;28.87;14.90;;;;;;;;;;5013056;28;20667;-73
2022/03/28 00:06:20;;;;;;;29.63;15.23;;;;;;;;;;4995377;28;20066;-73
2022/03/28 00:08:49;;;;;;;30.67;15.33;;;;;;;;;;5001620;28;20060;-74
2022/03/28 00:11:15;;;;;;;29.90;14.67;;;;;;;;;;5001261;28;20434;-73
2022/03/28 00:13:40;;;;;;;31.07;14.30;;;;;;;;;;5012033;28;20061;-74
2022/03/28 00:16:06;;;;;;;31.70;14.83;;;;;;;;;;5001102;28;20056;-73
2022/03/28 00:18:32;;;;;;;27.83;13.47;;;;;;;;;;4997220;28;20034;-74
2022/03/28 00:20:57;;;;;;;28.60;13.60;;;;;;;;;;5005321;28;20033;-74
2022/03/28 00:23:24;;;;;;;36.13;14.80;;;;;;;;;;5018442;28;20156;-74
2022/03/28 00:25:50;;;;;;;24.93;13.60;;;;;;;;;;4998694;28;20022;-73
2022/03/28 00:28:17;;;;;;;27.97;14.00;;;;;;;;;;5005426;28;20034;-74
2022/03/28 00:30:43;;;;;;;27.47;14.20;;;;;;;;;;5016145;28;20026;-74
2022/03/28 00:33:08;;;;;;;28.70;13.93;;;;;;;;;;5003972;28;20036;-73
2022/03/28 00:35:35;;;;;;;29.73;14.50;;;;;;;;;;5012658;28;20030;-75
2022/03/28 00:38:02;;;;;;;27.37;13.10;;;;;;;;;;5002293;28;20500;-74
2022/03/28 00:40:31;;;;;;;26.60;14.50;;;;;;;;;;5002962;28;20041;-74
2022/03/28 00:43:03;;;;;;;34.00;14.93;;;;;;;;;;5011719;28;20037;-74
2022/03/28 00:45:36;;;;;;;31.65;15.57;;;;;;;;;;5012205;28;20109;-74
2022/03/28 00:48:03;;;;;;;27.70;13.23;;;;;;;;;;5016817;28;20417;-74
2022/03/28 00:50:31;;;;;;;29.53;16.30;;;;;;;;;;4997533;28;20030;-74
2022/03/28 00:52:58;;;;;;;30.77;13.83;;;;;;;;;;5017935;28;20529;-74
2022/03/28 00:55:24;;;;;;;31.30;14.63;;;;;;;;;;5001091;28;20030;-74
2022/03/28 00:57:50;;;;;;;27.00;14.50;;;;;;;;;;4997879;28;20037;-73
2022/03/28 01:00:16;;;;;;;27.20;14.53;;;;;;;;;;5016224;28;20033;-73
2022/03/28 01:02:42;;;;;;;28.77;14.17;;;;;;;;;;4997557;28;20026;-73
2022/03/28 01:05:09;;;;;;;30.70;13.97;;;;;;;;;;5001622;28;20426;-73
2022/03/28 01:07:35;;;;;;;28.63;14.50;;;;;;;;;;5001597;28;20474;-74
2022/03/28 01:10:01;;;;;;;29.63;13.83;;;;;;;;;;5016848;28;20033;-74
2022/03/28 01:12:31;;;;;;;27.67;16.00;;;;;;;;;;4996648;28;20038;-74
2022/03/28 01:14:57;;;;;;;29.40;15.23;;;;;;;;;;4998586;28;20042;-73
2022/03/28 01:20:08;;;;;;;27.70;13.60;;;;;;;;;;5008439;28;20045;-75
2022/03/28 01:22:34;;;;;;;32.43;15.57;;;;;;;;;;5009984;28;20478;-73
2022/03/28 01:25:02;;;;;;;28.60;14.80;;;;;;;;;;5010536;28;20025;-74
2022/03/28 01:27:28;;;;;;;32.37;14.27;;;;;;;;;;5021771;28;20033;-74
2022/03/28 01:29:54;;;;;;;30.20;14.40;;;;;;;;;;5004056;28;20022;-74
2022/03/28 01:32:19;;;;;;;29.90;15.00;;;;;;;;;;5018163;28;20054;-74
2022/03/28 01:34:45;;;;;;;29.33;13.83;;;;;;;;;;5003620;28;20069;-74
2022/03/28 01:37:11;;;;;;;28.70;14.40;;;;;;;;;;5021023;28;20116;-73
2022/03/28 01:39:37;;;;;;;30.37;15.93;;;;;;;;;;5018586;28;20026;-74
2022/03/28 01:42:04;;;;;;;33.43;16.17;;;;;;;;;;5021332;28;20400;-74
2022/03/28 01:44:30;;;;;;;30.17;14.70;;;;;;;;;;5017438;28;20036;-74
2022/03/28 01:46:55;;;;;;;32.10;14.57;;;;;;;;;;5001793;28;20033;-74
2022/03/28 01:49:21;;;;;;;27.63;14.30;;;;;;;;;;5001144;28;20390;-74
2022/03/28 01:51:48;;;;;;;29.93;14.53;;;;;;;;;;5001020;28;20021;-74
2022/03/28 01:54:14;;;;;;;32.43;14.13;;;;;;;;;;5023232;28;20034;-74
2022/03/28 01:56:40;;;;;;;29.93;13.67;;;;;;;;;;5001104;28;20037;-74
2022/03/28 01:59:07;;;;;;;24.57;13.93;;;;;;;;;;5017511;28;20054;-73
2022/03/28 02:01:35;;;;;;;30.27;14.37;;;;;;;;;;4984910;28;20041;-74
2022/03/28 02:04:01;;;;;;;31.17;16.03;;;;;;;;;;5017608;28;20026;-74
2022/03/28 02:06:28;;;;;;;36.40;14.87;;;;;;;;;;5004472;28;20034;-74
2022/03/28 02:08:54;;;;;;;30.67;14.57;;;;;;;;;;4988135;28;20066;-73
2022/03/28 02:11:20;;;;;;;31.67;14.87;;;;;;;;;;4997600;28;20102;-74
2022/03/28 02:13:45;;;;;;;28.13;14.63;;;;;;;;;;5004013;28;20506;-74
2022/03/28 02:16:11;;;;;;;35.17;15.30;;;;;;;;;;5001698;28;20040;-74
2022/03/28 02:18:38;;;;;;;27.20;13.47;;;;;;;;;;5017818;28;20034;-74
2022/03/28 02:21:04;;;;;;;26.57;14.53;;;;;;;;;;5004210;28;20362;-73
2022/03/28 02:23:30;;;;;;;26.43;13.40;;;;;;;;;;5004491;28;20026;-73
2022/03/28 02:25:55;;;;;;;26.27;14.40;;;;;;;;;;5002807;28;20092;-73
2022/03/28 02:28:21;;;;;;;26.63;14.27;;;;;;;;;;5003228;28;20041;-73
2022/03/28 02:30:46;;;;;;;27.13;14.10;;;;;;;;;;5003780;28;20030;-74
2022/03/28 02:33:12;;;;;;;27.87;13.97;;;;;;;;;;5005086;28;20041;-74
2022/03/28 02:35:37;;;;;;;29.17;13.70;;;;;;;;;;4999865;28;20117;-73
2022/03/28 02:38:03;;;;;;;34.50;15.07;;;;;;;;;;5020514;28;20030;-74
2022/03/28 02:40:29;;;;;;;27.87;15.43;;;;;;;;;;5018321;28;20053;-73
2022/03/28 02:42:59;;;;;;;32.57;15.17;;;;;;;;;;4998577;28;20099;-73
2022/03/28 02:45:31;;;;;;;27.43;13.47;;;;;;;;;;5017723;28;20418;-73
2022/03/28 02:47:56;;;;;;;;;;;;;;;;;;5000079;28;21368;-73
2022/03/28 02:50:22;;;;;;;25.00;13.50;;;;;;;;;;5017216;28;19952;-73
2022/03/28 02:52:48;;;;;;;24.67;14.47;;;;;;;;;;5001292;28;20434;-73
2022/03/28 02:55:14;;;;;;;28.20;13.80;;;;;;;;;;5002974;28;20419;-73
2022/03/28 02:57:39;;;;;;;30.97;14.83;;;;;;;;;;5017205;28;20030;-73
2022/03/28 03:00:10;;;;;;;28.80;13.90;;;;;;;;;;4999176;28;20041;-74
2022/03/28 03:02:38;;;;;;;31.03;15.43;;;;;;;;;;5016743;28;20030;-74
2022/03/28 03:05:05;;;;;;;26.43;14.50;;;;;;;;;;4999701;28;20026;-75
2022/03/28 03:07:31;;;;;;;30.47;14.57;;;;;;;;;;5003166;28;20076;-74
2022/03/28 03:09:56;;;;;;;25.93;14.20;;;;;;;;;;5019632;28;20025;-74
2022/03/28 03:12:22;;;;;;;39.07;16.13;;;;;;;;;;5019168;28;20095;-74
2022/03/28 03:14:47;;;;;;;31.20;15.50;;;;;;;;;;5016063;28;20048;-74
2022/03/28 03:17:13;;;;;;;28.70;13.87;;;;;;;;;;4999274;28;20053;-74
2022/03/28 03:19:40;;;;;;;22.77;13.63;;;;;;;;;;5009756;28;20030;-74
2022/03/28 03:22:07;;;;;;;31.33;14.90;;;;;;;;;;5019144;28;20152;-74
2022/03/28 03:24:34;;;;;;;29.47;14.90;;;;;;;;;;5022410;28;20022;-75
2022/03/28 03:27:00;;;;;;;29.30;12.90;;;;;;;;;;4999419;28;20033;-74
2022/03/28 03:29:26;;;;;;;28.70;14.60;;;;;;;;;;5019188;28;20049;-74
2022/03/28 03:31:52;;;;;;;34.47;14.77;;;;;;;;;;5016068;28;20030;-74
2022/03/28 03:34:18;;;;;;;30.17;13.47;;;;;;;;;;4998764;28;20109;-74
2022/03/28 03:36:44;;;;;;;31.43;16.60;;;;;;;;;;5016138;28;20598;-74
2022/03/28 03:39:10;;;;;;;31.70;14.77;;;;;;;;;;5005262;28;20036;-74
2022/03/28 03:41:35;;;;;;;28.93;14.60;;;;;;;;;;5002772;28;20386;-74
2022/03/28 03:44:01;;;;;;;28.20;14.07;;;;;;;;;;5018591;28;20228;-74
2022/03/28 03:46:26;;;;;;;34.90;16.40;;;;;;;;;;5018992;28;20372;-73
2022/03/28 03:48:52;;;;;;;30.03;14.23;;;;;;;;;;4997106;28;20128;-74
2022/03/28 03:51:18;;;;;;;30.30;15.97;;;;;;;;;;5016687;28;20037;-74
2022/03/28 03:53:43;;;;;;;26.87;14.73;;;;;;;;;;5002286;28;20410;-73
2022/03/28 03:56:09;;;;;;;32.93;15.07;;;;;;;;;;4997501;28;20030;-73
2022/03/28 03:58:35;;;;;;;29.37;14.30;;;;;;;;;;5007281;28;20076;-74
2022/03/28 04:01:00;;;;;;;29.60;14.17;;;;;;;;;;4998670;28;20030;-74
2022/03/28 04:03:26;;;;;;;28.17;14.10;;;;;;;;;;5017531;28;20531;-74
2022/03/28 04:05:51;;;;;;;30.07;14.07;;;;;;;;;;4997368;28;20026;-74
2022/03/28 04:08:17;;;;;;;29.67;14.97;;;;;;;;;;5025022;28;20104;-73
2022/03/28 04:10:43;;;;;;;29.03;14.73;;;;;;;;;;4997866;28;20061;-75
2022/03/28 04:13:10;;;;;;;31.83;14.40;;;;;;;;;;5019001;28;20040;-73
2022/03/28 04:15:35;;;;;;;31.63;13.40;;;;;;;;;;4998027;28;20120;-73
2022/03/28 04:18:01;;;;;;;32.03;15.20;;;;;;;;;;5019846;28;20042;-75
2022/03/28 04:20:28;;;;;;;28.30;14.30;;;;;;;;;;5002622;28;20445;-74
2022/03/28 04:22:53;;;;;;;27.33;14.10;;;;;;;;;;5019697;28;20065;-74
2022/03/28 04:25:19;;;;;;;26.93;14.07;;;;;;;;;;5005454;28;20025;-74
2022/03/28 04:27:44;;;;;;;28.77;13.80;;;;;;;;;;5001176;28;20026;-75
2022/03/28 04:30:12;;;;;;;31.17;13.83;;;;;;;;;;5006787;28;20034;-74
2022/03/28 04:32:38;;;;;;;37.83;16.70;;;;;;;;;;5000389;28;20149;-74
2022/03/28 04:35:05;;;;;;;36.47;14.43;;;;;;;;;;5020111;28;20066;-75
2022/03/28 04:37:38;;;;;;;26.37;13.27;;;;;;;;;;5018733;28;20085;-75
2022/03/28 04:40:06;;;;;;;27.33;14.63;;;;;;;;;;5007935;28;20033;-74
2022/03/28 04:42:32;;;;;;;31.03;14.70;;;;;;;;;;5001740;28;20038;-74
2022/03/28 04:44:57;;;;;;;27.27;14.37;;;;;;;;;;4997619;28;20033;-74
2022/03/28 04:47:23;;;;;;;26.57;14.47;;;;;;;;;;5001866;28;20030;-73
2022/03/28 04:49:49;;;;;;;32.73;15.13;;;;;;;;;;4995967;28;20505;-73
2022/03/28 04:52:14;;;;;;;50.20;23.33;;;;;;;;;;5002638;28;20053;-73
2022/03/28 04:54:40;;;;;;;30.27;16.20;;;;;;;;;;5001449;28;20077;-73
2022/03/28 04:57:06;;;;;;;29.80;14.60;;;;;;;;;;5011695;28;20033;-72
2022/03/28 04:59:32;;;;;;;35.07;14.27;;;;;;;;;;4993000;28;20034;-73
2022/03/28 05:01:58;;;;;;;29.23;14.50;;;;;;;;;;5021932;28;20052;-72
2022/03/28 05:04:24;;;;;;;25.53;13.90;;;;;;;;;;5000212;28;20058;-72
2022/03/28 05:06:50;;;;;;;26.93;14.93;;;;;;;;;;5005322;28;20069;-73
2022/03/28 05:09:15;;;;;;;31.07;14.90;;;;;;;;;;5017896;28;20076;-72
2022/03/28 05:11:42;;;;;;;31.73;14.13;;;;;;;;;;5000239;28;20026;-74
2022/03/28 05:14:08;;;;;;;38.33;15.67;;;;;;;;;;5004982;28;20497;-73
2022/03/28 05:16:34;;;;;;;26.33;13.93;;;;;;;;;;5000143;28;20081;-73
2022/03/28 05:19:00;;;;;;;30.40;14.77;;;;;;;;;;5005366;28;20034;-75
2022/03/28 05:21:25;;;;;;;26.70;14.57;;;;;;;;;;5026834;28;20120;-72
2022/03/28 05:23:51;;;;;;;26.67;13.80;;;;;;;;;;5024459;28;20092;-74
2022/03/28 05:26:16;;;;;;;28.63;14.03;;;;;;;;;;5001497;28;20034;-72
2022/03/28 05:28:42;;;;;;;27.73;14.43;;;;;;;;;;5026197;28;20123;-73
2022/03/28 05:31:07;;;;;;;28.93;15.33;;;;;;;;;;5016890;28;20588;-75
2022/03/28 05:33:36;;;;;;;28.83;13.83;;;;;;;;;;5005332;28;20105;-73
2022/03/28 05:36:02;;;;;;;26.93;13.63;;;;;;;;;;5005273;28;20490;-72
2022/03/28 05:38:28;;;;;;;29.73;16.60;;;;;;;;;;5005717;28;20045;-72
2022/03/28 05:40:57;;;;;;;33.77;15.30;;;;;;;;;;5025912;28;20045;-72
2022/03/28 05:43:41;;;;;;;34.77;15.60;;;;;;;;;;5001449;28;20065;-73
2022/03/28 05:46:06;;;;;;;34.57;14.30;;;;;;;;;;5023865;28;20545;-71
2022/03/28 05:48:33;;;;;;;30.70;14.83;;;;;;;;;;5025642;28;20121;-74
2022/03/28 05:50:58;;;;;;;29.63;14.97;;;;;;;;;;5002289;28;20473;-74
2022/03/28 05:53:24;;;;;;;29.47;14.93;;;;;;;;;;5001253;28;20022;-72
2022/03/28 05:55:51;;;;;;;27.63;14.30;;;;;;;;;;5008130;28;20461;-73
2022/03/28 05:58:17;;;;;;;29.10;15.00;;;;;;;;;;5024682;28;20417;-71
2022/03/28 06:00:43;;;;;;;34.27;15.20;;;;;;;;;;5003511;28;20036;-73
2022/03/28 06:03:09;;;;;;;33.43;15.50;;;;;;;;;;5008295;28;20026;-72
2022/03/28 06:05:38;;;;;;;32.77;15.83;;;;;;;;;;5018910;28;20061;-73
2022/03/28 06:08:07;;;;;;;30.67;14.40;;;;;;;;;;5007553;28;20022;-71
2022/03/28 06:10:34;;;;;;;36.73;15.17;;;;;;;;;;5023080;28;20083;-72
2022/03/28 06:13:03;;;;;;;29.57;14.10;;;;;;;;;;5009271;28;20032;-76
2022/03/28 06:15:32;;;;;;;28.60;14.13;;;;;;;;;;5012287;28;20054;-74
2022/03/28 06:17:58;;;;;;;32.97;14.27;;;;;;;;;;5000067;28;20573;-73
2022/03/28 06:20:24;;;;;;;34.17;15.23;;;;;;;;;;5022947;28;20026;-73
2022/03/28 06:22:49;;;;;;;45.23;15.73;;;;;;;;;;5023760;28;20732;-74
2022/03/28 06:25:16;;;;;;;30.70;14.83;;;;;;;;;;5003557;28;20030;-71
2022/03/28 06:27:46;;;;;;;29.30;15.27;;;;;;;;;;5010948;28;20477;-74
2022/03/28 06:30:13;;;;;;;33.77;15.80;;;;;;;;;;5020275;28;20117;-73
2022/03/28 06:32:39;;;;;;;28.57;14.97;;;;;;;;;;5013649;28;20033;-72
2022/03/28 06:35:06;;;;;;;40.63;16.23;;;;;;;;;;5018761;28;20030;-72
2022/03/28 06:37:38;;;;;;;35.00;15.97;;;;;;;;;;5016550;28;20162;-72
2022/03/28 06:40:10;;;;;;;35.47;16.23;;;;;;;;;;5002958;28;20869;-73
2022/03/28 06:42:39;;;;;;;35.17;15.60;;;;;;;;;;5011485;28;20038;-74
2022/03/28 06:45:06;;;;;;;36.53;15.77;;;;;;;;;;4993886;28;20027;-72
2022/03/28 06:47:32;;;;;;;37.20;15.53;;;;;;;;;;4998143;28;20034;-73
2022/03/28 06:50:01;;;;;;;30.27;16.00;;;;;;;;;;4993597;28;21045;-73
2022/03/28 06:52:33;;;;;;;43.03;17.20;;;;;;;;;;5012279;28;20394;-72
2022/03/28 06:54:59;;;;;;;31.00;15.30;;;;;;;;;;4996646;28;20026;-72
2022/03/28 06:57:27;;;;;;;32.60;15.50;;;;;;;;;;5013056;28;20086;-74
2022/03/28 06:59:56;;;;;;;33.27;16.23;;;;;;;;;;5011579;28;20033;-73
2022/03/28 07:02:25;;;;;;;29.90;13.83;;;;;;;;;;5014371;28;20057;-71
2022/03/28 07:04:51;;;;;;;30.37;14.83;;;;;;;;;;5008352;28;20628;-73
2022/03/28 07:07:18;;;;;;;33.80;15.17;;;;;;;;;;4995749;28;20032;-72
2022/03/28 07:09:48;;;;;;;27.87;15.43;;;;;;;;;;4995354;28;20054;-74
2022/03/28 07:12:14;;;;;;;32.50;15.43;;;;;;;;;;4994502;28;20022;-75
2022/03/28 07:14:42;;;;;;;30.23;15.83;;;;;;;;;;5012537;28;20053;-73
2022/03/28 07:17:09;;;;;;;39.10;17.33;;;;;;;;;;4993531;28;20534;-71
2022/03/28 07:19:36;;;;;;;27.37;15.30;;;;;;;;;;4986558;28;20090;-73
2022/03/28 07:22:06;;;;;;;29.07;14.40;;;;;;;;;;5006539;28;20045;-71
2022/03/28 07:24:45;;;;;;;31.97;15.07;;;;;;;;;;5011815;28;20100;-73
2022/03/28 07:27:11;;;;;;;29.20;15.87;;;;;;;;;;4991051;28;20073;-73
2022/03/28 07:29:38;;;;;;;27.60;14.90;;;;;;;;;;5007019;28;20091;-73
2022/03/28 07:32:09;;;;;;;32.13;15.37;;;;;;;;;;4992489;28;20037;-73
2022/03/28 07:34:38;;;;;;;30.33;14.90;;;;;;;;;;5006220;28;20623;-72
2022/03/28 07:37:06;;;;;;;26.63;14.23;;;;;;;;;;5011955;28;20041;-73
2022/03/28 07:39:38;;;;;;;33.87;14.00;;;;;;;;;;5010382;28;20042;-73
2022/03/28 07:42:09;;;;;;;27.93;13.17;;;;;;;;;;4996911;28;20041;-73
2022/03/28 07:44:38;;;;;;;28.70;14.50;;;;;;;;;;5012598;28;20168;-74
2022/03/28 07:47:08;;;;;;;28.37;14.47;;;;;;;;;;5009863;28;20272;-73
2022/03/28 07:49:38;;;;;;;31.37;15.30;;;;;;;;;;4997747;28;20040;-72
2022/03/28 07:52:08;;;;;;;25.30;13.43;;;;;;;;;;4994446;28;20033;-72
2022/03/28 07:54:36;;;;;;;26.33;14.33;;;;;;;;;;4991107;28;20042;-72
2022/03/28 07:57:05;;;;;;;26.80;15.10;;;;;;;;;;4992044;28;20045;-73
2022/03/28 07:59:35;;;;;;;25.07;13.60;;;;;;;;;;4994609;28;20065;-75
2022/03/28 08:02:07;;;;;;;25.47;13.07;;;;;;;;;;4998351;28;20072;-75
2022/03/28 08:04:36;;;;;;;24.90;13.37;;;;;;;;;;4996021;28;20042;-73
2022/03/28 08:07:05;;;;;;;25.13;14.33;;;;;;;;;;4990821;28;20066;-73
2022/03/28 08:09:32;;;;;;;25.13;13.60;;;;;;;;;;4995129;28;20569;-73
2022/03/28 08:11:59;;;;;;;21.40;13.20;;;;;;;;;;4995941;28;20037;-74
2022/03/28 08:14:28;;;;;;;36.10;14.57;;;;;;;;;;4994270;28;20053;-72
2022/03/28 08:16:55;;;;;;;22.53;12.40;;;;;;;;;;4989694;28;20065;-72
2022/03/28 08:19:24;;;;;;;26.30;13.77;;;;;;;;;;5001540;28;20095;-75
2022/03/28 08:21:51;;;;;;;24.67;15.27;;;;;;;;;;4996874;28;20038;-75
2022/03/28 08:24:20;;;;;;;25.77;13.53;;;;;;;;;;5016630;28;20034;-72
2022/03/28 08:26:49;;;;;;;22.00;13.17;;;;;;;;;;5016861;28;20044;-70
2022/03/28 08:29:15;;;;;;;24.50;13.77;;;;;;;;;;5017176;28;20061;-74
2022/03/28 08:31:42;;;;;;;30.07;14.83;;;;;;;;;;5000500;28;20048;-75
2022/03/28 08:34:09;;;;;;;24.87;13.80;;;;;;;;;;5015564;28;20088;-73
2022/03/28 08:36:36;;;;;;;24.53;13.57;;;;;;;;;;5008485;28;21035;-73
2022/03/28 08:39:04;;;;;;;26.60;13.93;;;;;;;;;;4995344;28;20477;-72
2022/03/28 08:41:33;;;;;;;24.27;13.48;;;;;;;;;;4988875;28;20045;-74
2022/03/28 08:44:00;;;;;;;27.50;14.15;;;;;;;;;;5004006;28;20046;-73
2022/03/28 08:46:29;;;;;;;23.73;13.70;;;;;;;;;;5000449;28;20121;-72
2022/03/28 08:48:57;;;;;;;23.90;13.32;;;;;;;;;;4983643;28;20070;-77
2022/03/28 08:51:29;;;;;;;40.28;16.58;;;;;;;;;;5018782;28;20057;-73
2022/03/28 08:53:56;;;;;;;29.98;14.52;;;;;;;;;;4997735;28;20041;-73
2022/03/28 08:56:22;;;;;;;28.38;13.90;;;;;;;;;;4999885;28;20030;-73
2022/03/28 08:58:48;;;;;;;25.42;13.30;;;;;;;;;;5013232;28;20037;-72
2022/03/28 09:01:24;;;;;;;28.70;14.85;;;;;;;;;;4995879;28;20088;-73
2022/03/28 09:03:54;;;;;;;34.20;14.20;;;;;;;;;;5010798;28;20029;-75
2022/03/28 09:06:52;;;;;;;28.23;14.02;;;;;;;;;;4991712;28;20030;-74
2022/03/28 09:09:31;;;;;;;26.92;16.50;;;;;;;;;;5010017;28;20056;-72
2022/03/28 09:12:09;;;;;;;26.20;14.95;;;;;;;;;;5001732;28;20165;-73
2022/03/28 09:14:37;;;;;;;29.95;14.48;;;;;;;;;;4988655;28;20046;-76
2022/03/28 09:17:13;;;;;;;27.13;13.45;;;;;;;;;;4987956;28;20038;-74
2022/03/28 09:20:02;;;;;;;25.48;14.57;;;;;;;;;;4990679;28;20057;-76
2022/03/28 09:22:34;;;;;;;29.85;13.73;;;;;;;;;;4990771;28;20034;-74
2022/03/28 09:25:07;;;;;;;23.45;14.95;;;;;;;;;;4996482;28;20156;-73
2022/03/28 09:27:39;;;;;;;25.13;14.77;;;;;;;;;;4993563;28;20545;-73
2022/03/28 09:30:10;;;;;;;;;;;;;;;;;;4997630;28;20030;-72
2022/03/28 09:32:42;;;;;;;24.08;14.48;;;;;;;;;;5006028;28;19921;-71
2022/03/28 09:35:26;;;;;;;23.50;13.23;;;;;;;;;;5006259;28;20029;-74
2022/03/28 09:38:02;;;;;;;26.40;14.32;;;;;;;;;;4997621;28;20021;-74
2022/03/28 09:40:39;;;;;;;25.33;13.90;;;;;;;;;;4999273;28;20414;-75
2022/03/28 09:43:23;;;;;;;24.63;13.20;;;;;;;;;;5001518;28;20041;-73
2022/03/28 09:45:53;;;;;;;;;;;;;;;;;;5011672;28;20030;-73
2022/03/28 09:48:25;;;;;;;25.13;12.90;;;;;;;;;;5004069;28;20009;-72
2022/03/28 09:51:05;;;;;;;23.83;13.88;;;;;;;;;;5005835;28;20038;-75
2022/03/28 09:53:39;;;;;;;23.40;12.88;;;;;;;;;;5009721;28;20033;-73
2022/03/28 09:56:11;;;;;;;24.15;12.38;;;;;;;;;;4996475;28;20033;-74
2022/03/28 09:58:47;;;;;;;22.80;13.00;;;;;;;;;;5010543;28;20689;-74
2022/03/28 10:01:17;;;;;;;23.42;13.38;;;;;;;;;;4995442;28;20045;-73
2022/03/28 10:03:53;;;;;;;21.17;12.57;;;;;;;;;;4996976;28;20381;-73
2022/03/28 10:06:25;;;;;;;23.23;12.00;;;;;;;;;;5002640;28;20030;-74
2022/03/28 10:08:55;;;;;;;20.45;11.10;;;;;;;;;;5003399;28;20410;-78
2022/03/28 10:11:21;;;;;;;20.08;12.00;;;;;;;;;;5009487;28;20034;-77
2022/03/28 10:13:48;;;;;;;22.05;12.02;;;;;;;;;;4996124;28;20096;-77
2022/03/28 10:16:15;;;;;;;19.95;12.00;;;;;;;;;;4977631;28;20035;-76
2022/03/28 10:18:45;;;;;;;20.83;11.43;;;;;;;;;;5003716;28;21714;-77
2022/03/28 10:21:26;;;;;;;17.83;11.15;;;;;;;;;;5000514;28;20267;-76
2022/03/28 10:24:12;;;;;;;17.52;11.00;;;;;;;;;;5005357;28;20038;-76
2022/03/28 10:26:54;;;;;;;14.23;8.95;;;;;;;;;;4992258;28;20061;-76
2022/03/28 10:29:35;;;;;;;19.15;10.50;;;;;;;;;;5010530;28;20121;-76
2022/03/28 10:32:20;;;;;;;13.43;8.13;;;;;;;;;;4999521;28;20022;-75
2022/03/28 10:34:49;;;;;;;15.32;8.75;;;;;;;;;;4996002;28;20120;-76
2022/03/28 10:37:30;;;;;;;11.77;7.80;;;;;;;;;;4997836;28;20459;-74
2022/03/28 10:40:19;;;;;;;12.43;7.72;;;;;;;;;;5014861;28;20039;-74
2022/03/28 10:43:14;;;;;;;13.20;9.02;;;;;;;;;;5001467;28;20030;-78
2022/03/28 10:45:50;;;;;;;21.83;8.25;;;;;;;;;;5008220;28;20093;-74
2022/03/28 10:48:47;;;;;;;13.10;7.35;;;;;;;;;;5010163;28;20691;-74
2022/03/28 10:51:32;;;;;;;11.25;7.63;;;;;;;;;;4991144;28;20042;-74
2022/03/28 10:54:06;;;;;;;12.30;7.57;;;;;;;;;;5010101;28;20034;-74
2022/03/28 10:56:38;;;;;;;11.90;7.53;;;;;;;;;;4993893;28;20032;-74
2022/03/28 10:59:12;;;;;;;14.40;8.80;;;;;;;;;;4996801;28;20057;-75
2022/03/28 11:01:41;;;;;;;12.63;8.15;;;;;;;;;;5012081;28;20028;-74
2022/03/28 11:04:23;;;;;;;14.65;8.00;;;;;;;;;;5003560;28;20045;-74
2022/03/28 11:07:03;;;;;;;12.35;7.93;;;;;;;;;;4991930;28;20079;-75
2022/03/28 11:09:41;;;;;;;12.77;7.88;;;;;;;;;;4998884;28;20121;-74
2022/03/28 11:12:21;;;;;;;11.23;7.82;;;;;;;;;;4994299;28;20391;-75
2022/03/28 11:15:18;;;;;;;9.98;6.38;;;;;;;;;;5005922;28;20060;-76
2022/03/28 11:18:12;;;;;;;11.20;6.53;;;;;;;;;;5007328;28;20478;-76
2022/03/28 11:20:47;;;;;;;10.88;6.10;;;;;;;;;;4995622;28;20036;-74
2022/03/28 11:23:21;;;;;;;12.73;7.13;;;;;;;;;;4993782;28;20057;-75
2022/03/28 11:25:57;;;;;;;8.75;6.38;;;;;;;;;;4998645;28;20132;-74
2022/03/28 11:28:23;;;;;;;16.05;6.95;;;;;;;;;;5001034;28;20030;-76
2022/03/28 11:31:11;;;;;;;11.82;6.72;;;;;;;;;;5011294;28;20038;-77
2022/03/28 11:33:44;;;;;;;12.18;6.30;;;;;;;;;;5017330;28;20034;-75
2022/03/28 11:36:19;;;;;;;9.18;6.30;;;;;;;;;;5011297;28;20030;-75
2022/03/28 11:38:51;;;;;;;8.05;5.57;;;;;;;;;;5009608;28;20029;-77
2022/03/28 11:41:24;;;;;;;8.20;5.70;;;;;;;;;;4996299;28;20117;-76
2022/03/28 11:43:53;;;;;;;11.40;6.15;;;;;;;;;;5000775;28;20513;-76
2022/03/28 11:46:32;;;;;;;9.43;6.00;;;;;;;;;;5000917;28;20034;-76
2022/03/28 11:49:01;;;;;;;10.70;5.88;;;;;;;;;;4992000;28;20030;-76
2022/03/28 11:51:43;;;;;;;7.93;6.00;;;;;;;;;;4992798;28;20838;-72
2022/03/28 11:54:17;;;;;;;8.00;5.60;;;;;;;;;;4989190;28;20030;-74
2022/03/28 11:59:42;;;;;;;5.85;4.10;;;;;;;;;;4992152;28;20056;-74
2022/03/28 12:02:09;;;;;;;10.05;4.15;;;;;;;;;;4988954;28;20033;-75
2022/03/28 12:04:45;;;;;;;4.97;3.30;;;;;;;;;;4980403;28;20115;-75
2022/03/28 12:07:14;;;;;;;6.65;4.35;;;;;;;;;;5000415;28;20104;-75
2022/03/28 12:09:45;;;;;;;8.93;4.53;;;;;;;;;;5008782;28;20120;-75
2022/03/28 12:12:17;;;;;;;6.85;3.65;;;;;;;;;;5004052;28;20030;-77
2022/03/28 12:14:43;;;;;;;5.38;3.70;;;;;;;;;;5002057;28;20042;-76
2022/03/28 12:17:13;;;;;;;6.93;3.75;;;;;;;;;;4990068;28;20129;-74
2022/03/28 12:19:41;;;;;;;11.23;4.20;;;;;;;;;;5006617;28;20030;-76
2022/03/28 12:22:18;;;;;;;5.30;3.70;;;;;;;;;;4993425;28;20062;-75
2022/03/28 12:24:53;;;;;;;7.78;3.92;;;;;;;;;;4996769;28;20030;-76
2022/03/28 12:27:21;;;;;;;5.15;3.95;;;;;;;;;;5000279;28;20030;-75
2022/03/28 12:29:50;;;;;;;4.88;3.90;;;;;;;;;;5007448;28;20157;-76
2022/03/28 12:32:17;;;;;;;6.63;4.22;;;;;;;;;;5015561;28;20425;-78
2022/03/28 12:34:44;;;;;;;6.55;3.30;;;;;;;;;;4998800;28;20430;-77
2022/03/28 12:37:18;;;;;;;5.00;3.45;;;;;;;;;;4999985;28;20429;-75
2022/03/28 12:39:47;;;;;;;6.03;3.95;;;;;;;;;;5017676;28;20121;-74
2022/03/28 12:42:26;;;;;;;11.68;4.03;;;;;;;;;;5008536;28;20212;-72
2022/03/28 12:44:54;;;;;;;12.52;5.97;;;;;;;;;;4993273;28;20362;-75
2022/03/28 12:47:29;;;;;;;8.88;4.38;;;;;;;;;;4989645;28;20504;-76
2022/03/28 12:49:57;;;;;;;6.80;5.18;;;;;;;;;;5010173;28;20434;-75
2022/03/28 12:52:31;;;;;;;7.00;4.40;;;;;;;;;;5003094;28;20064;-76
2022/03/28 12:55:06;;;;;;;6.18;4.78;;;;;;;;;;5004679;28;20448;-72
2022/03/28 12:57:37;;;;;;;13.68;5.22;;;;;;;;;;4995023;28;20517;-76
2022/03/28 13:00:05;;;;;;;13.07;5.28;;;;;;;;;;5010126;28;20057;-76
2022/03/28 13:02:31;;;;;;;6.72;5.28;;;;;;;;;;5008976;28;20448;-74
2022/03/28 13:04:58;;;;;;;9.32;6.28;;;;;;;;;;4994374;28;20089;-74
2022/03/28 13:07:32;;;;;;;8.38;5.85;;;;;;;;;;5004830;28;20072;-75
2022/03/28 13:10:20;;;;;;;7.35;5.85;;;;;;;;;;4990506;28;20045;-77
2022/03/28 13:12:45;;;;;;;9.95;5.75;;;;;;;;;;5009450;28;20490;-75
2022/03/28 13:15:19;;;;;;;12.15;6.10;;;;;;;;;;4991112;28;20038;-73
2022/03/28 13:18:03;;;;;;;10.85;6.00;;;;;;;;;;4993611;28;20022;-73
2022/03/28 13:20:29;;;;;;;13.32;7.85;;;;;;;;;;4981561;28;20046;-75
2022/03/28 13:23:01;;;;;;;15.70;8.77;;;;;;;;;;4999550;28;20115;-75
2022/03/28 13:25:29;;;;;;;11.80;7.32;;;;;;;;;;5005007;28;20255;-76
2022/03/28 13:28:08;;;;;;;8.00;6.53;;;;;;;;;;4988308;28;20433;-73
2022/03/28 13:30:53;;;;;;;10.32;6.28;;;;;;;;;;4995753;28;20805;-75
2022/03/28 13:33:22;;;;;;;10.32;5.72;;;;;;;;;;4984902;28;20034;-75
2022/03/28 13:35:54;;;;;;;8.88;5.47;;;;;;;;;;5008619;28;20036;-75
2022/03/28 13:38:21;;;;;;;9.00;5.47;;;;;;;;;;5010899;28;20707;-75
2022/03/28 13:40:50;;;;;;;9.93;5.75;;;;;;;;;;5007260;28;20567;-75
2022/03/28 13:43:18;;;;;;;12.65;6.00;;;;;;;;;;5014687;28;20049;-75
2022/03/28 13:45:44;;;;;;;11.18;6.60;;;;;;;;;;4998878;28;20148;-74
2022/03/28 13:48:13;;;;;;;7.85;6.35;;;;;;;;;;5002632;28;20064;-75
2022/03/28 13:50:42;;;;;;;8.13;5.55;;;;;;;;;;4994828;28;20030;-74
2022/03/28 13:53:10;;;;;;;9.52;6.00;;;;;;;;;;4983786;28;20068;-73
2022/03/28 13:55:36;;;;;;;10.23;6.32;;;;;;;;;;5005618;28;20133;-74
2022/03/28 13:58:03;;;;;;;8.45;6.38;;;;;;;;;;4997136;28;20097;-74
2022/03/28 14:00:30;;;;;;;11.07;6.40;;;;;;;;;;4994426;28;20040;-76
2022/03/28 14:02:56;;;;;;;10.57;6.65;;;;;;;;;;5001796;28;20038;-76
2022/03/28 14:05:22;;;;;;;15.07;7.00;;;;;;;;;;4992333;28;20104;-76
2022/03/28 14:07:48;;;;;;;8.77;6.07;;;;;;;;;;5007330;28;20034;-76
2022/03/28 14:10:14;;;;;;;9.02;5.95;;;;;;;;;;4994899;28;20041;-75
2022/03/28 14:12:41;;;;;;;9.77;6.20;;;;;;;;;;4998753;28;20058;-75
2022/03/28 14:15:09;;;;;;;8.80;6.28;;;;;;;;;;5006408;28;20046;-75
2022/03/28 14:17:37;;;;;;;11.75;6.75;;;;;;;;;;4995877;28;20762;-75
2022/03/28 14:20:06;;;;;;;13.52;7.32;;;;;;;;;;4997889;28;20077;-75
2022/03/28 14:22:33;;;;;;;7.40;6.05;;;;;;;;;;5002596;28;20125;-77
2022/03/28 14:24:59;;;;;;;12.90;6.03;;;;;;;;;;5017944;28;20026;-75
2022/03/28 14:27:26;;;;;;;7.63;5.72;;;;;;;;;;5016693;28;20029;-76
2022/03/28 14:29:56;;;;;;;6.60;4.93;;;;;;;;;;4996176;28;20110;-75
2022/03/28 14:32:23;;;;;;;6.75;4.75;;;;;;;;;;5018137;28;20050;-76
2022/03/28 14:34:54;;;;;;;6.03;5.07;;;;;;;;;;5023188;28;20044;-75
2022/03/28 14:37:21;;;;;;;11.10;5.28;;;;;;;;;;4996370;28;20057;-76
2022/03/28 14:39:50;;;;;;;9.43;5.40;;;;;;;;;;5017350;28;20525;-75
2022/03/28 14:42:17;;;;;;;9.77;5.35;;;;;;;;;;5008036;28;20131;-76